Ruma, Serbia
Current Conditions -  °F | °C
As of 6:30 PM on Friday 19 Dec 2014 (Local Time) from LYBT Reporting Station
Clear Clear  
Wind Chill: 41°   Ceiling: Unl
Heat Index: 41°   Visibility: 6mi
Dew Point: 37°   Wind: 2mph
Humidity: 87%   Direction: 130°SE
Pressure: 30.09"   Gusts: NA
Location:  45°N, 19.83°E
Report Text: LYBT 191630Z 13002KT CAVOK 05/03 Q1019 NOSIG
Loading
Personal Weather Stations






























Interactive Weather Map New forecast layout! Learn more

10-Day Weather Forecast

Advertisements
Track Severe Weather on mobile